createdAt,value
2022-09-29T00:00:40.304Z,9.05
2022-09-29T00:03:08.131Z,9.02
2022-09-29T00:05:35.345Z,9.09
2022-09-29T00:08:03.731Z,9.06
2022-09-29T00:10:30.511Z,9.00
2022-09-29T00:12:57.521Z,8.86
2022-09-29T00:15:24.314Z,8.82
2022-09-29T00:18:12.841Z,8.80
2022-09-29T00:20:38.682Z,8.78
2022-09-29T00:23:06.842Z,8.80
2022-09-29T00:25:33.686Z,8.76
2022-09-29T00:28:00.684Z,8.78
2022-09-29T00:30:28.311Z,8.87
2022-09-29T00:32:55.106Z,8.91
2022-09-29T00:35:21.881Z,8.80
2022-09-29T00:37:48.671Z,8.79
2022-09-29T00:40:17.517Z,8.81
2022-09-29T00:42:44.328Z,8.82
2022-09-29T00:45:21.775Z,8.91
2022-09-29T00:48:03.608Z,9.05
2022-09-29T00:50:44.480Z,9.15
2022-09-29T00:53:19.124Z,9.27
2022-09-29T00:55:56.544Z,9.13
2022-09-29T00:58:31.837Z,9.16
2022-09-29T01:00:59.008Z,9.01
2022-09-29T01:03:30.902Z,8.93
2022-09-29T01:06:02.740Z,8.97
2022-09-29T01:08:39.292Z,8.92
2022-09-29T01:11:11.123Z,8.85
2022-09-29T01:13:39.424Z,8.88
2022-09-29T01:16:06.795Z,8.91
2022-09-29T01:18:34.549Z,8.91
2022-09-29T01:21:17.254Z,8.92
2022-09-29T01:24:21.813Z,8.99
2022-09-29T01:27:24.875Z,8.98
2022-09-29T01:30:19.903Z,9.08
2022-09-29T01:33:09.442Z,8.88
2022-09-29T01:35:49.210Z,8.76
2022-09-29T01:38:41.096Z,8.76
2022-09-29T01:41:21.008Z,8.78
2022-09-29T01:43:57.646Z,8.91
2022-09-29T01:46:33.699Z,8.96
2022-09-29T01:49:04.331Z,8.87
2022-09-29T01:51:41.650Z,8.56
2022-09-29T01:54:15.522Z,8.59
2022-09-29T01:56:51.315Z,8.53
2022-09-29T01:59:28.005Z,8.68
2022-09-29T02:02:05.661Z,8.79
2022-09-29T02:04:44.028Z,8.90
2022-09-29T02:07:22.721Z,8.97
2022-09-29T02:10:00.263Z,8.95
2022-09-29T02:12:32.335Z,8.91
2022-09-29T02:15:03.830Z,8.93
2022-09-29T02:17:36.901Z,8.84
2022-09-29T02:20:07.161Z,8.91
2022-09-29T02:22:35.567Z,9.05
2022-09-29T02:25:04.670Z,9.13
2022-09-29T02:27:31.651Z,9.25
2022-09-29T02:29:58.967Z,9.36
2022-09-29T02:32:27.358Z,9.46
2022-09-29T02:34:56.658Z,9.55
2022-09-29T02:37:41.813Z,9.64
2022-09-29T02:40:32.247Z,9.68
2022-09-29T02:43:21.243Z,9.70
2022-09-29T02:46:10.797Z,9.69
2022-09-29T02:49:06.061Z,9.43
2022-09-29T02:51:39.859Z,9.48
2022-09-29T02:54:38.853Z,9.58
2022-09-29T02:57:19.901Z,9.71
2022-09-29T03:00:01.457Z,9.72
2022-09-29T03:02:28.352Z,9.74
2022-09-29T03:04:55.275Z,9.65
2022-09-29T03:07:22.598Z,9.59
2022-09-29T03:09:50.869Z,9.56
2022-09-29T03:12:17.609Z,9.57
2022-09-29T03:14:44.671Z,9.52
2022-09-29T03:17:11.770Z,9.34
2022-09-29T03:19:39.054Z,9.34
2022-09-29T03:22:05.909Z,9.37
2022-09-29T03:24:32.686Z,9.36
2022-09-29T03:27:00.743Z,9.40
2022-09-29T03:29:28.197Z,9.54
2022-09-29T03:31:55.111Z,9.62
2022-09-29T03:34:21.901Z,9.68
2022-09-29T03:36:48.892Z,9.78
2022-09-29T03:39:15.807Z,9.86
2022-09-29T03:41:42.576Z,9.92
2022-09-29T03:44:10.683Z,10.00
2022-09-29T03:46:37.582Z,10.04
2022-09-29T03:49:04.384Z,10.05
2022-09-29T03:51:31.459Z,10.08
2022-09-29T03:53:58.336Z,10.10
2022-09-29T03:56:25.405Z,10.11
2022-09-29T03:58:52.374Z,10.09
2022-09-29T04:01:21.249Z,10.11
2022-09-29T04:03:48.443Z,10.13
2022-09-29T04:06:15.478Z,10.13
2022-09-29T04:08:42.236Z,10.16
2022-09-29T04:11:11.514Z,10.18
2022-09-29T04:13:38.294Z,10.03
2022-09-29T04:16:06.524Z,9.95
2022-09-29T04:18:36.741Z,9.91
2022-09-29T04:21:07.022Z,9.94
2022-09-29T04:23:34.744Z,10.01
2022-09-29T04:26:02.055Z,10.02
2022-09-29T04:28:31.336Z,10.03
2022-09-29T04:30:58.465Z,9.97
2022-09-29T04:33:25.368Z,9.89
2022-09-29T04:35:53.473Z,9.84
2022-09-29T04:38:20.930Z,9.81
2022-09-29T04:40:48.129Z,9.85
2022-09-29T04:43:15.532Z,9.90
2022-09-29T04:45:42.587Z,9.95
2022-09-29T04:48:09.528Z,9.97
2022-09-29T04:50:36.230Z,9.98
2022-09-29T04:53:04.607Z,9.91
2022-09-29T04:55:31.380Z,9.85
2022-09-29T04:57:58.210Z,9.86
2022-09-29T05:00:24.973Z,9.88
2022-09-29T05:02:51.719Z,9.87
2022-09-29T05:05:18.745Z,9.87
2022-09-29T05:07:45.799Z,9.85
2022-09-29T05:10:13.970Z,9.78
2022-09-29T05:12:40.727Z,9.79
2022-09-29T05:15:09.195Z,9.84
2022-09-29T05:17:36.118Z,9.87
2022-09-29T05:20:03.201Z,9.89
2022-09-29T05:22:30.982Z,9.86
2022-09-29T05:24:57.688Z,9.85
2022-09-29T05:27:25.867Z,9.86
2022-09-29T05:29:52.802Z,9.86
2022-09-29T05:32:19.601Z,9.90
2022-09-29T05:34:46.288Z,9.90
2022-09-29T05:37:13.227Z,9.91
2022-09-29T05:39:40.470Z,9.92
2022-09-29T05:42:12.040Z,10.01
2022-09-29T05:44:40.161Z,10.12
2022-09-29T05:47:07.181Z,10.16
2022-09-29T05:49:33.873Z,10.18
2022-09-29T05:52:01.238Z,10.19
2022-09-29T05:54:27.986Z,10.23
2022-09-29T05:56:55.201Z,10.24
2022-09-29T05:59:22.022Z,10.31
2022-09-29T06:01:50.309Z,10.38
2022-09-29T06:04:17.377Z,10.37
2022-09-29T06:06:44.466Z,10.28
2022-09-29T06:09:11.245Z,10.34
2022-09-29T06:11:37.941Z,10.39
2022-09-29T06:14:04.793Z,10.46
2022-09-29T06:16:33.891Z,10.47
2022-09-29T06:19:03.499Z,10.48
2022-09-29T06:21:31.727Z,10.47
2022-09-29T06:23:59.102Z,10.16
2022-09-29T06:26:27.464Z,10.28
2022-09-29T06:28:56.357Z,10.38
2022-09-29T06:31:25.880Z,10.57
2022-09-29T06:33:56.796Z,10.70
2022-09-29T06:36:29.952Z,10.77
2022-09-29T06:38:56.730Z,10.90
2022-09-29T06:41:23.940Z,10.92
2022-09-29T06:43:51.251Z,10.95
2022-09-29T06:46:18.013Z,11.02
2022-09-29T06:48:45.608Z,10.98
2022-09-29T06:51:12.370Z,11.03
2022-09-29T06:53:40.598Z,11.13
2022-09-29T06:56:09.273Z,11.20
2022-09-29T06:58:36.302Z,11.20
2022-09-29T07:01:04.161Z,10.93
2022-09-29T07:03:34.679Z,10.97
2022-09-29T07:06:18.819Z,11.10
2022-09-29T07:08:47.924Z,11.24
2022-09-29T07:11:14.712Z,11.32
2022-09-29T07:13:41.487Z,11.38
2022-09-29T07:16:11.582Z,11.34
2022-09-29T07:18:42.011Z,10.97
2022-09-29T07:21:11.682Z,10.80
2022-09-29T07:23:39.424Z,10.84
2022-09-29T07:26:07.999Z,10.77
2022-09-29T07:28:36.547Z,10.97
2022-09-29T07:31:14.497Z,11.19
2022-09-29T07:33:42.634Z,10.75
2022-09-29T07:36:09.512Z,10.99
2022-09-29T07:38:36.292Z,11.19
2022-09-29T07:41:06.244Z,10.88
2022-09-29T07:43:34.748Z,11.07
2022-09-29T07:46:02.398Z,11.00
2022-09-29T07:48:32.395Z,11.63
2022-09-29T07:51:04.217Z,12.08
2022-09-29T07:53:31.899Z,12.27
2022-09-29T07:56:03.827Z,12.29
2022-09-29T07:58:31.758Z,12.01
2022-09-29T08:01:01.130Z,12.00
2022-09-29T08:03:28.346Z,12.14
2022-09-29T08:05:55.375Z,12.22
2022-09-29T08:08:22.126Z,12.56
2022-09-29T08:10:53.323Z,12.90
2022-09-29T08:13:21.136Z,13.10
2022-09-29T08:15:48.005Z,13.56
2022-09-29T08:18:16.078Z,13.94
2022-09-29T08:20:42.830Z,13.97
2022-09-29T08:23:09.581Z,13.13
2022-09-29T08:25:36.467Z,13.37
2022-09-29T08:28:03.646Z,13.42
2022-09-29T08:30:30.363Z,13.51
2022-09-29T08:32:57.487Z,13.75
2022-09-29T08:35:26.088Z,13.96
2022-09-29T08:37:54.140Z,14.01
2022-09-29T08:40:21.740Z,14.13
2022-09-29T08:43:04.463Z,14.05
2022-09-29T08:45:53.607Z,14.12
2022-09-29T08:48:31.164Z,13.96
2022-09-29T08:51:04.464Z,13.53
2022-09-29T08:53:38.285Z,13.55
2022-09-29T08:56:09.757Z,13.82
2022-09-29T08:58:39.528Z,14.15
2022-09-29T09:01:24.553Z,14.23
2022-09-29T09:04:09.676Z,14.35
2022-09-29T09:06:59.207Z,14.27
2022-09-29T09:09:46.934Z,14.60
2022-09-29T09:12:38.263Z,14.92
2022-09-29T09:15:36.701Z,15.07
2022-09-29T09:18:28.825Z,15.22
2022-09-29T09:21:06.639Z,15.39
2022-09-29T09:23:54.415Z,15.40
2022-09-29T09:26:38.548Z,15.46
2022-09-29T09:29:17.026Z,15.51
2022-09-29T09:31:53.918Z,15.74
2022-09-29T09:34:40.577Z,15.97
2022-09-29T09:37:17.812Z,16.16
2022-09-29T09:39:57.844Z,16.15
2022-09-29T09:42:30.342Z,16.30
2022-09-29T09:45:02.842Z,16.41
2022-09-29T09:47:38.687Z,16.44
2022-09-29T09:50:14.660Z,16.50
2022-09-29T09:52:46.815Z,16.59
2022-09-29T09:55:18.858Z,16.49
2022-09-29T09:58:03.142Z,16.41
2022-09-29T10:00:38.776Z,16.51
2022-09-29T10:03:08.954Z,16.60
2022-09-29T10:05:41.089Z,16.78
2022-09-29T10:08:18.658Z,17.77
2022-09-29T10:10:57.953Z,18.86
2022-09-29T10:13:28.156Z,19.52
2022-09-29T10:15:59.691Z,19.12
2022-09-29T10:18:32.129Z,17.63
2022-09-29T10:20:59.203Z,17.12
2022-09-29T10:23:30.819Z,16.16
2022-09-29T10:26:08.512Z,15.68
2022-09-29T10:28:45.100Z,15.11
2022-09-29T10:31:19.060Z,15.01
2022-09-29T10:33:52.078Z,15.03
2022-09-29T10:36:20.588Z,15.15
2022-09-29T10:38:51.931Z,15.40
2022-09-29T10:41:22.988Z,15.41
2022-09-29T10:43:50.130Z,15.52
2022-09-29T10:46:48.808Z,16.04
2022-09-29T10:49:18.212Z,16.47
2022-09-29T10:51:56.153Z,17.01
2022-09-29T10:54:26.439Z,16.86
2022-09-29T10:56:56.979Z,16.34
2022-09-29T10:59:26.846Z,16.17
2022-09-29T11:01:58.565Z,16.26
2022-09-29T11:04:32.299Z,16.04
2022-09-29T11:07:08.375Z,15.58
2022-09-29T11:09:41.086Z,15.78
2022-09-29T11:12:29.212Z,15.99
2022-09-29T11:14:56.349Z,16.21
2022-09-29T11:17:26.443Z,16.38
2022-09-29T11:19:57.095Z,16.53
2022-09-29T11:22:56.092Z,16.74
2022-09-29T11:26:07.563Z,16.60
2022-09-29T11:29:25.172Z,15.64
2022-09-29T11:32:13.979Z,15.55
2022-09-29T11:35:12.214Z,15.43
2022-09-29T11:38:00.776Z,15.04
2022-09-29T11:40:40.763Z,15.26
2022-09-29T11:43:33.007Z,15.24
2022-09-29T11:46:21.601Z,15.29
2022-09-29T11:49:20.838Z,15.52
2022-09-29T11:52:08.649Z,15.83
2022-09-29T11:55:05.257Z,16.12
2022-09-29T11:57:51.825Z,16.40
2022-09-29T12:00:21.713Z,16.63
2022-09-29T12:03:21.137Z,16.70
2022-09-29T12:06:05.089Z,16.89
2022-09-29T12:08:57.781Z,16.85
2022-09-29T12:11:54.998Z,17.14
2022-09-29T12:14:54.826Z,17.45
2022-09-29T12:17:26.949Z,16.96
2022-09-29T12:20:05.917Z,16.37
2022-09-29T12:22:36.978Z,16.11
2022-09-29T12:25:13.550Z,15.81
2022-09-29T12:27:44.748Z,15.28
2022-09-29T12:30:21.021Z,15.10
2022-09-29T12:32:54.829Z,15.61
2022-09-29T12:35:34.162Z,15.88
2022-09-29T12:38:15.947Z,16.17
2022-09-29T12:40:52.084Z,16.13
2022-09-29T12:43:31.994Z,16.22
2022-09-29T12:46:10.355Z,16.21
2022-09-29T12:48:58.593Z,15.93
2022-09-29T12:51:35.265Z,15.67
2022-09-29T12:54:16.418Z,15.68
2022-09-29T12:56:50.243Z,15.76
2022-09-29T12:59:35.073Z,15.99
2022-09-29T13:02:30.393Z,16.22
2022-09-29T13:05:25.292Z,16.28
2022-09-29T13:08:44.610Z,16.32
2022-09-29T13:11:53.067Z,16.34
2022-09-29T13:14:44.541Z,16.38
2022-09-29T13:17:37.486Z,16.62
2022-09-29T13:20:38.852Z,16.38
2022-09-29T13:23:31.070Z,16.73
2022-09-29T13:26:28.549Z,16.92
2022-09-29T13:29:01.758Z,17.10
2022-09-29T13:31:35.649Z,16.86
2022-09-29T13:34:04.366Z,16.90
2022-09-29T13:36:37.684Z,16.95
2022-09-29T13:39:19.268Z,16.76
2022-09-29T13:41:46.266Z,16.68
2022-09-29T13:44:26.723Z,16.76
2022-09-29T13:46:55.272Z,16.60
2022-09-29T13:49:29.580Z,16.64
2022-09-29T13:51:58.726Z,15.96
2022-09-29T13:54:36.382Z,16.00
2022-09-29T13:57:28.421Z,15.52
2022-09-29T14:00:23.153Z,15.49
2022-09-29T14:03:02.758Z,15.68
2022-09-29T14:05:44.282Z,15.88
2022-09-29T14:08:22.813Z,16.05
2022-09-29T14:11:01.980Z,16.16
2022-09-29T14:13:39.610Z,16.24
2022-09-29T14:16:40.067Z,16.37
2022-09-29T14:19:16.739Z,16.43
2022-09-29T14:21:51.999Z,16.46
2022-09-29T14:24:45.380Z,16.37
2022-09-29T14:27:26.327Z,16.23
2022-09-29T14:30:03.655Z,16.22
2022-09-29T14:32:42.864Z,16.22
2022-09-29T14:35:24.715Z,16.21
2022-09-29T14:38:02.225Z,16.19
2022-09-29T14:40:29.815Z,16.06
2022-09-29T14:43:14.358Z,15.98
2022-09-29T14:46:19.341Z,16.02
2022-09-29T14:49:08.775Z,15.93
2022-09-29T14:51:46.136Z,15.97
2022-09-29T14:54:29.742Z,15.99
2022-09-29T14:57:34.975Z,16.08
2022-09-29T15:00:16.336Z,16.17
2022-09-29T15:02:52.308Z,16.25
2022-09-29T15:05:31.274Z,16.25
2022-09-29T15:08:00.221Z,16.28
2022-09-29T15:10:30.507Z,16.32
2022-09-29T15:13:16.925Z,16.33
2022-09-29T15:15:49.019Z,16.34
2022-09-29T15:18:40.440Z,16.32
2022-09-29T15:21:20.347Z,16.10
2022-09-29T15:24:21.669Z,15.99
2022-09-29T15:26:49.443Z,15.60
2022-09-29T15:29:19.216Z,15.56
2022-09-29T15:31:48.136Z,15.43
2022-09-29T15:34:20.792Z,15.50
2022-09-29T15:36:58.365Z,15.56
2022-09-29T15:39:44.411Z,15.42
2022-09-29T15:42:15.904Z,15.46
2022-09-29T15:44:51.175Z,15.41
2022-09-29T15:47:28.874Z,15.38
2022-09-29T15:49:56.074Z,15.34
2022-09-29T15:52:23.123Z,15.38
2022-09-29T15:54:57.106Z,15.34
2022-09-29T15:57:45.031Z,15.21
2022-09-29T16:01:00.628Z,15.19
2022-09-29T16:03:38.454Z,15.24
2022-09-29T16:06:17.486Z,15.28
2022-09-29T16:08:49.702Z,15.36
2022-09-29T16:11:23.483Z,15.42
2022-09-29T16:13:59.239Z,15.44
2022-09-29T16:16:36.539Z,15.44
2022-09-29T16:19:15.687Z,15.40
2022-09-29T16:21:43.032Z,15.42
2022-09-29T16:24:17.300Z,15.41
2022-09-29T16:26:47.846Z,15.36
2022-09-29T16:29:28.194Z,15.32
2022-09-29T16:31:57.607Z,15.28
2022-09-29T16:34:32.502Z,15.24
2022-09-29T16:37:03.569Z,15.20
2022-09-29T16:39:34.042Z,15.14
2022-09-29T16:42:06.591Z,15.02
2022-09-29T16:44:41.892Z,14.95
2022-09-29T16:47:16.447Z,14.87
2022-09-29T16:49:51.988Z,14.80
2022-09-29T16:52:25.536Z,14.73
2022-09-29T16:55:05.756Z,14.64
2022-09-29T16:57:33.790Z,14.54
2022-09-29T17:00:12.765Z,14.44
2022-09-29T17:02:42.154Z,14.41
2022-09-29T17:05:10.404Z,14.32
2022-09-29T17:07:41.057Z,14.23
2022-09-29T17:10:17.582Z,14.12
2022-09-29T17:12:44.552Z,14.01
2022-09-29T17:15:13.679Z,13.91
2022-09-29T17:17:40.756Z,13.86
2022-09-29T17:20:16.613Z,13.82
2022-09-29T17:22:45.206Z,13.70
2022-09-29T17:25:13.447Z,13.64
2022-09-29T17:27:41.724Z,13.61
2022-09-29T17:30:14.260Z,13.58
2022-09-29T17:32:41.599Z,13.53
2022-09-29T17:35:10.758Z,13.46
2022-09-29T17:37:37.618Z,13.37
2022-09-29T17:40:20.743Z,13.35
2022-09-29T17:42:48.427Z,13.30
2022-09-29T17:45:16.671Z,13.29
2022-09-29T17:47:44.186Z,13.25
2022-09-29T17:50:23.189Z,13.21
2022-09-29T17:52:50.305Z,13.21
2022-09-29T17:55:17.391Z,13.21
2022-09-29T17:57:45.278Z,13.20
2022-09-29T18:00:16.923Z,13.19
2022-09-29T18:02:44.790Z,13.19
2022-09-29T18:05:11.770Z,13.15
2022-09-29T18:07:39.911Z,13.15
2022-09-29T18:10:20.607Z,13.15
2022-09-29T18:12:47.732Z,13.14
2022-09-29T18:15:14.784Z,13.17
2022-09-29T18:17:41.853Z,13.17
2022-09-29T18:20:15.351Z,13.10
2022-09-29T18:22:44.415Z,13.02
2022-09-29T18:25:11.736Z,13.07
2022-09-29T18:27:39.052Z,13.07
2022-09-29T18:30:16.757Z,13.06
2022-09-29T18:32:43.540Z,13.07
2022-09-29T18:35:15.603Z,12.76
2022-09-29T18:37:43.794Z,12.63
2022-09-29T18:40:12.178Z,12.61
2022-09-29T18:42:44.386Z,12.64
2022-09-29T18:45:15.531Z,12.66
2022-09-29T18:47:43.570Z,12.54
2022-09-29T18:50:16.333Z,12.41
2022-09-29T18:52:44.683Z,12.41
2022-09-29T18:55:11.699Z,12.43
2022-09-29T18:57:38.429Z,12.47
2022-09-29T19:00:08.571Z,12.54
2022-09-29T19:02:35.580Z,12.58
2022-09-29T19:05:03.068Z,12.59
2022-09-29T19:07:30.259Z,12.60
2022-09-29T19:09:58.398Z,12.59
2022-09-29T19:12:25.450Z,12.62
2022-09-29T19:17:24.069Z,12.59
2022-09-29T19:19:50.998Z,12.56
2022-09-29T19:22:18.528Z,12.59
2022-09-29T19:24:45.662Z,12.58
2022-09-29T19:27:14.132Z,12.56
2022-09-29T19:29:40.914Z,12.54
2022-09-29T19:32:09.873Z,12.51
2022-09-29T19:34:36.667Z,12.50
2022-09-29T19:37:04.366Z,12.50
2022-09-29T19:39:31.402Z,12.46
2022-09-29T19:41:58.936Z,12.45
2022-09-29T19:44:27.175Z,12.43
2022-09-29T19:46:54.121Z,12.42
2022-09-29T19:49:21.337Z,12.41
2022-09-29T19:51:51.344Z,12.39
2022-09-29T19:54:20.602Z,12.36
2022-09-29T19:56:50.382Z,12.30
2022-09-29T19:59:21.206Z,12.27
2022-09-29T20:01:51.201Z,12.25
2022-09-29T20:04:22.662Z,12.25
2022-09-29T20:06:51.612Z,12.25
2022-09-29T20:09:19.662Z,12.25
2022-09-29T20:11:47.676Z,12.28
2022-09-29T20:14:17.205Z,12.29
2022-09-29T20:16:45.547Z,12.28
2022-09-29T20:19:17.056Z,12.27
2022-09-29T20:21:45.871Z,12.24
2022-09-29T20:24:16.160Z,12.23
2022-09-29T20:26:44.856Z,12.23
2022-09-29T20:29:12.208Z,12.22
2022-09-29T20:31:39.362Z,12.23
2022-09-29T20:34:07.476Z,12.25
2022-09-29T20:36:35.645Z,12.24
2022-09-29T20:39:04.429Z,12.23
2022-09-29T20:41:31.591Z,12.23
2022-09-29T20:43:58.637Z,12.22
2022-09-29T20:46:27.538Z,12.20
2022-09-29T20:48:57.922Z,12.22
2022-09-29T20:51:26.413Z,12.20
2022-09-29T20:54:01.812Z,12.12
2022-09-29T20:56:31.694Z,12.09
2022-09-29T20:59:00.168Z,12.10
2022-09-29T21:01:30.435Z,12.08
2022-09-29T21:03:59.791Z,12.07
2022-09-29T21:06:30.519Z,12.04
2022-09-29T21:08:59.859Z,12.05
2022-09-29T21:11:27.594Z,12.04
2022-09-29T21:13:56.029Z,12.02
2022-09-29T21:16:24.857Z,11.99
2022-09-29T21:18:53.059Z,12.00
2022-09-29T21:21:19.852Z,11.98
2022-09-29T21:23:46.752Z,11.99
2022-09-29T21:26:18.318Z,11.98
2022-09-29T21:28:51.211Z,11.97
2022-09-29T21:31:22.061Z,11.93
2022-09-29T21:33:53.971Z,11.90
2022-09-29T21:36:23.976Z,11.87
2022-09-29T21:38:52.196Z,11.81
2022-09-29T21:41:23.005Z,11.62
2022-09-29T21:43:52.408Z,11.50
2022-09-29T21:46:21.968Z,11.41
2022-09-29T21:48:51.763Z,11.43
2022-09-29T21:51:22.005Z,11.48
2022-09-29T21:53:48.941Z,11.51
2022-09-29T21:56:18.601Z,11.53
2022-09-29T21:58:47.577Z,11.57
2022-09-29T22:01:14.515Z,11.60
2022-09-29T22:03:44.543Z,11.59
2022-09-29T22:06:14.872Z,11.62
2022-09-29T22:08:42.645Z,11.64
2022-09-29T22:11:10.271Z,11.64
2022-09-29T22:13:37.318Z,11.60
2022-09-29T22:16:10.494Z,11.63
2022-09-29T22:18:42.425Z,11.61
2022-09-29T22:21:12.373Z,11.61
2022-09-29T22:23:39.419Z,11.59
2022-09-29T22:26:11.490Z,11.57
2022-09-29T22:28:39.423Z,11.56
2022-09-29T22:31:09.956Z,11.51
2022-09-29T22:33:39.088Z,11.50
2022-09-29T22:36:06.753Z,11.47
2022-09-29T22:38:34.816Z,11.47
2022-09-29T22:41:08.142Z,11.44
2022-09-29T22:43:34.937Z,11.40
2022-09-29T22:46:01.730Z,11.38
2022-09-29T22:48:30.147Z,11.39
2022-09-29T22:50:56.956Z,11.38
2022-09-29T22:53:23.844Z,11.35
2022-09-29T22:55:50.603Z,11.35
2022-09-29T22:58:17.483Z,11.35
2022-09-29T23:00:44.332Z,11.31
2022-09-29T23:03:12.128Z,11.27
2022-09-29T23:05:40.406Z,11.24
2022-09-29T23:08:07.743Z,11.21
2022-09-29T23:10:34.743Z,11.07
2022-09-29T23:13:03.488Z,11.09
2022-09-29T23:15:30.240Z,11.07
2022-09-29T23:17:56.943Z,11.10
2022-09-29T23:20:23.731Z,11.11
2022-09-29T23:22:52.048Z,11.13
2022-09-29T23:25:18.785Z,11.08
2022-09-29T23:27:45.634Z,11.01
2022-09-29T23:30:12.511Z,11.04
2022-09-29T23:32:39.251Z,11.07
2022-09-29T23:35:06.705Z,11.09
2022-09-29T23:37:33.682Z,11.12
2022-09-29T23:40:02.128Z,11.12
2022-09-29T23:42:28.905Z,11.15
2022-09-29T23:44:55.762Z,11.11
2022-09-29T23:47:22.528Z,11.09
2022-09-29T23:49:49.463Z,11.08
2022-09-29T23:52:16.284Z,11.08
2022-09-29T23:54:43.622Z,11.05
2022-09-29T23:57:11.670Z,11.00
2022-09-29T23:59:38.723Z,10.98
